Time;durP1;ratioP1;P1;durP2;ratioP2;P2;SDS_P1;SDS_P2;PMS_P1;PMS_P2;Temp;Humidity;BMP_temperature;BMP_pressure;BME280_temperature;BME280_humidity;BME280_pressure;Samples;Min_cycle;Max_cycle;Signal;HPM_P1;HPM_P2
2023/06/08 00:02:25;;;;;;;13.32;7.00;;;12.40;99.90;;;;;;5093528;28;20457;-78
2023/06/08 00:04:52;;;;;;;14.40;6.47;;;12.30;99.90;;;;;;5094929;28;20082;-78
2023/06/08 00:07:19;;;;;;;19.33;6.43;;;12.40;99.90;;;;;;5093573;28;20055;-78
2023/06/08 00:09:45;;;;;;;16.13;6.93;;;12.40;99.90;;;;;;5093413;28;20491;-78
2023/06/08 00:12:14;;;;;;;14.60;6.43;;;12.40;99.90;;;;;;5094761;28;20036;-78
2023/06/08 00:14:42;;;;;;;14.70;6.38;;;12.20;99.90;;;;;;5094585;28;20101;-78
2023/06/08 00:17:09;;;;;;;14.60;6.03;;;12.10;99.90;;;;;;5093455;28;20052;-78
2023/06/08 00:19:38;;;;;;;16.25;6.55;;;12.10;99.90;;;;;;5093326;28;20506;-77
2023/06/08 00:22:06;;;;;;;15.50;7.00;;;12.10;99.90;;;;;;5094338;28;20364;-77
2023/06/08 00:24:32;;;;;;;14.25;6.95;;;12.10;99.90;;;;;;5093559;28;20264;-78
2023/06/08 00:26:59;;;;;;;13.50;6.20;;;12.10;99.90;;;;;;5093086;28;20122;-77
2023/06/08 00:29:25;;;;;;;15.50;6.80;;;12.10;99.90;;;;;;5093385;28;20071;-77
2023/06/08 00:31:51;;;;;;;10.75;5.90;;;12.00;99.90;;;;;;5092953;28;20404;-77
2023/06/08 00:34:20;;;;;;;14.38;6.72;;;12.00;99.90;;;;;;5093097;28;20402;-78
2023/06/08 00:36:46;;;;;;;14.07;6.22;;;11.90;99.90;;;;;;5093295;28;20127;-78
2023/06/08 00:39:12;;;;;;;20.02;6.82;;;11.90;99.90;;;;;;5092828;28;20209;-78
2023/06/08 00:41:38;;;;;;;15.90;7.57;;;11.90;99.90;;;;;;5092838;28;20040;-78
2023/06/08 00:44:05;;;;;;;14.10;6.50;;;12.00;99.90;;;;;;5092886;28;20047;-78
2023/06/08 00:46:33;;;;;;;12.38;6.57;;;12.00;99.90;;;;;;5092702;28;20052;-78
2023/06/08 00:49:00;;;;;;;14.63;6.60;;;12.10;99.90;;;;;;5093947;28;20405;-78
2023/06/08 00:51:33;;;;;;;13.95;5.85;;;12.20;99.90;;;;;;5092720;28;20050;-78
2023/06/08 00:53:59;;;;;;;12.80;6.80;;;12.20;99.90;;;;;;5092654;28;20050;-78
2023/06/08 00:56:31;;;;;;;16.85;6.65;;;12.10;99.90;;;;;;5092637;28;20044;-78
2023/06/08 00:59:02;;;;;;;12.47;6.00;;;12.10;99.90;;;;;;5092675;28;20403;-77
2023/06/08 01:01:29;;;;;;;12.73;6.35;;;12.20;99.90;;;;;;5093991;28;20044;-78
2023/06/08 01:04:08;;;;;;;13.27;6.53;;;12.20;99.90;;;;;;5092585;28;20101;-77
2023/06/08 01:06:45;;;;;;;12.60;5.78;;;12.30;99.90;;;;;;5093254;28;20079;-78
2023/06/08 01:09:21;;;;;;;13.02;6.35;;;12.30;99.90;;;;;;5094136;28;20454;-78
2023/06/08 01:12:05;;;;;;;14.00;6.70;;;12.20;99.90;;;;;;5092522;28;20055;-78
2023/06/08 01:14:31;;;;;;;14.18;6.47;;;12.20;99.90;;;;;;5092827;28;20051;-78
2023/06/08 01:17:02;;;;;;;14.07;6.05;;;12.00;99.90;;;;;;5092353;28;20131;-78
2023/06/08 01:19:40;;;;;;;14.88;6.40;;;11.90;99.90;;;;;;5092325;28;20404;-77
2023/06/08 01:22:17;;;;;;;12.25;6.20;;;11.90;99.90;;;;;;5092658;28;20101;-77
2023/06/08 01:24:49;;;;;;;12.35;6.38;;;11.90;99.90;;;;;;5109481;28;20050;-78
2023/06/08 01:27:17;;;;;;;15.68;5.70;;;11.80;99.90;;;;;;5092272;28;20127;-77
2023/06/08 01:29:44;;;;;;;16.00;6.00;;;11.90;99.90;;;;;;5092456;28;20044;-78
2023/06/08 01:32:10;;;;;;;16.90;5.90;;;12.10;99.90;;;;;;5093762;28;20052;-77
2023/06/08 01:34:36;;;;;;;15.38;6.90;;;12.10;99.90;;;;;;5096820;28;20127;-77
2023/06/08 01:37:10;;;;;;;15.50;6.30;;;12.10;99.90;;;;;;5096859;28;20123;-77
2023/06/08 01:39:44;;;;;;;13.80;6.97;;;12.10;99.90;;;;;;5096576;28;20048;-77
2023/06/08 01:42:14;;;;;;;16.95;6.53;;;12.10;99.90;;;;;;5097828;28;20109;-77
2023/06/08 01:44:49;;;;;;;16.25;7.07;;;12.10;99.90;;;;;;5096138;28;20045;-77
2023/06/08 01:47:16;;;;;;;14.40;5.57;;;12.10;99.90;;;;;;5096527;28;20043;-77
2023/06/08 01:49:42;;;;;;;16.40;6.45;;;12.00;99.90;;;;;;5096440;28;20044;-78
2023/06/08 01:52:09;;;;;;;17.50;6.68;;;12.00;99.90;;;;;;5097504;28;20105;-78
2023/06/08 01:54:35;;;;;;;17.80;6.82;;;11.90;99.90;;;;;;5097249;28;20403;-78
2023/06/08 01:57:00;;;;;;;13.52;6.50;;;12.00;99.90;;;;;;5097243;28;20047;-78
2023/06/08 01:59:26;;;;;;;13.20;6.45;;;11.90;99.90;;;;;;5096022;28;20039;-78
2023/06/08 02:01:52;;;;;;;18.95;6.65;;;12.00;99.90;;;;;;5113065;28;20150;-78
2023/06/08 02:04:17;;;;;;;17.20;6.30;;;12.10;99.90;;;;;;5097246;28;20051;-77
2023/06/08 02:06:43;;;;;;;14.50;6.97;;;11.90;99.90;;;;;;5096035;28;20043;-77
2023/06/08 02:09:08;;;;;;;14.48;6.38;;;12.00;99.90;;;;;;5095731;28;20044;-78
2023/06/08 02:11:34;;;;;;;13.95;5.60;;;12.10;99.90;;;;;;5095621;28;20483;-77
2023/06/08 02:14:00;;;;;;;16.77;6.10;;;12.20;99.90;;;;;;5096007;28;20464;-77
2023/06/08 02:16:34;;;;;;;16.02;5.63;;;12.20;99.90;;;;;;5095659;28;20055;-76
2023/06/08 02:19:01;;;;;;;12.63;5.53;;;12.10;99.90;;;;;;5095939;28;20051;-77
2023/06/08 02:21:27;;;;;;;15.02;5.97;;;12.00;99.90;;;;;;5097007;28;20043;-77
2023/06/08 02:23:52;;;;;;;12.20;5.80;;;12.00;99.90;;;;;;5097106;28;20039;-78
2023/06/08 02:26:22;;;;;;;16.88;6.43;;;12.00;99.90;;;;;;5096866;28;20125;-78
2023/06/08 02:28:48;;;;;;;13.82;5.57;;;12.10;99.90;;;;;;5095762;28;20082;-78
2023/06/08 02:31:13;;;;;;;15.45;6.28;;;12.00;99.90;;;;;;5096672;28;20584;-77
2023/06/08 02:33:39;;;;;;;13.18;6.93;;;12.00;99.90;;;;;;5095451;28;20476;-77
2023/06/08 02:36:06;;;;;;;16.45;6.07;;;12.00;99.90;;;;;;5095169;28;20048;-77
2023/06/08 02:38:31;;;;;;;13.75;6.00;;;12.00;99.90;;;;;;5096657;28;20043;-77
2023/06/08 02:40:57;;;;;;;15.57;5.38;;;12.00;99.90;;;;;;5095333;28;20052;-77
2023/06/08 02:43:23;;;;;;;13.63;5.60;;;12.10;99.90;;;;;;5094818;28;20051;-77
2023/06/08 02:45:49;;;;;;;22.73;6.32;;;12.10;99.90;;;;;;5095040;28;20059;-78
2023/06/08 02:48:16;;;;;;;11.27;5.82;;;12.00;99.90;;;;;;5095119;28;20134;-78
2023/06/08 02:50:42;;;;;;;15.80;5.65;;;12.00;99.90;;;;;;5095181;28;20044;-78
2023/06/08 02:53:08;;;;;;;12.63;6.10;;;12.20;99.90;;;;;;5095217;28;20391;-77
2023/06/08 02:55:36;;;;;;;12.80;5.88;;;12.10;99.90;;;;;;5094961;28;20075;-78
2023/06/08 02:58:03;;;;;;;18.35;6.75;;;12.10;99.90;;;;;;5094851;28;20047;-78
2023/06/08 03:00:30;;;;;;;13.75;5.85;;;12.10;99.90;;;;;;5094725;28;20101;-78
2023/06/08 03:03:00;;;;;;;15.23;5.53;;;12.10;99.90;;;;;;5094699;28;20672;-77
2023/06/08 03:05:26;;;;;;;14.60;5.93;;;12.10;99.90;;;;;;5094595;28;20066;-77
2023/06/08 03:07:53;;;;;;;17.40;6.00;;;12.10;99.90;;;;;;5094723;28;20468;-77
2023/06/08 03:10:19;;;;;;;11.52;5.22;;;12.10;99.90;;;;;;5093570;28;20052;-77
2023/06/08 03:12:45;;;;;;;16.80;5.88;;;12.10;99.90;;;;;;5094438;28;20123;-77
2023/06/08 03:15:11;;;;;;;13.82;5.22;;;12.10;99.90;;;;;;5094507;28;20052;-77
2023/06/08 03:17:37;;;;;;;12.52;5.13;;;12.10;99.90;;;;;;5111302;28;20040;-77
2023/06/08 03:20:08;;;;;;;17.80;5.90;;;12.20;99.90;;;;;;5094545;28;20048;-77
2023/06/08 03:22:34;;;;;;;17.00;6.68;;;12.20;99.90;;;;;;5094471;28;20060;-78
2023/06/08 03:25:00;;;;;;;14.88;5.38;;;12.20;99.90;;;;;;5094414;28;20148;-78
2023/06/08 03:27:26;;;;;;;17.70;4.95;;;12.10;99.90;;;;;;5094140;28;20495;-77
2023/06/08 03:29:51;;;;;;;15.60;5.47;;;12.10;99.90;;;;;;5095148;28;20047;-77
2023/06/08 03:32:17;;;;;;;13.00;5.28;;;12.10;99.90;;;;;;5094050;28;20048;-77
2023/06/08 03:34:44;;;;;;;14.07;5.13;;;12.10;99.90;;;;;;5094304;28;20105;-77
2023/06/08 03:37:10;;;;;;;14.57;6.32;;;12.20;99.90;;;;;;5093211;28;20071;-77
2023/06/08 03:39:36;;;;;;;16.35;5.63;;;12.20;99.90;;;;;;5094039;28;20048;-77
2023/06/08 03:42:01;;;;;;;15.13;6.35;;;12.10;99.90;;;;;;5093817;28;20487;-77
2023/06/08 03:44:27;;;;;;;14.25;5.88;;;12.10;99.90;;;;;;5093660;28;20052;-77
2023/06/08 03:46:53;;;;;;;15.40;5.85;;;12.20;99.90;;;;;;5110502;28;20056;-77
2023/06/08 03:49:20;;;;;;;13.20;5.28;;;12.20;99.90;;;;;;5110592;28;20052;-77
2023/06/08 03:51:46;;;;;;;17.38;5.22;;;12.30;99.90;;;;;;5093623;28;20480;-77
2023/06/08 03:54:11;;;;;;;14.77;5.90;;;12.20;99.90;;;;;;5093512;28;20127;-77
2023/06/08 03:56:37;;;;;;;13.80;5.22;;;12.20;99.90;;;;;;5093140;28;20062;-78
2023/06/08 03:59:04;;;;;;;11.65;4.97;;;12.20;99.90;;;;;;5093422;28;20048;-77
2023/06/08 04:01:30;;;;;;;14.38;5.15;;;12.20;99.90;;;;;;5093429;28;20055;-77
2023/06/08 04:03:56;;;;;;;11.73;4.63;;;12.30;99.90;;;;;;5093346;28;20483;-77
2023/06/08 04:06:23;;;;;;;21.73;5.57;;;12.20;99.90;;;;;;5093565;28;20044;-78
2023/06/08 04:08:50;;;;;;;18.17;5.53;;;12.40;99.90;;;;;;5093318;28;20079;-78
2023/06/08 04:11:16;;;;;;;18.02;5.10;;;12.40;99.90;;;;;;5093103;28;20507;-77
2023/06/08 04:13:42;;;;;;;11.43;4.75;;;12.30;99.90;;;;;;5094678;28;20067;-76
2023/06/08 04:16:09;;;;;;;13.70;4.85;;;12.30;99.90;;;;;;5093183;28;20055;-77
2023/06/08 04:18:36;;;;;;;19.80;5.28;;;12.30;99.90;;;;;;5093043;28;20044;-77
2023/06/08 04:21:05;;;;;;;13.23;5.25;;;12.30;99.90;;;;;;5093084;28;20075;-77
2023/06/08 04:23:31;;;;;;;12.93;5.38;;;12.30;99.90;;;;;;5109992;28;20044;-77
2023/06/08 04:25:57;;;;;;;13.90;5.55;;;12.30;99.90;;;;;;5094204;28;20483;-77
2023/06/08 04:28:23;;;;;;;23.90;4.93;;;12.30;99.90;;;;;;5092870;28;20086;-77
2023/06/08 04:30:49;;;;;;;16.15;5.82;;;12.40;99.90;;;;;;5094561;28;20067;-77
2023/06/08 04:33:16;;;;;;;15.02;5.07;;;12.40;99.90;;;;;;5092798;28;20048;-77
2023/06/08 04:35:42;;;;;;;14.57;6.25;;;12.40;99.90;;;;;;5092850;28;20131;-77
2023/06/08 04:38:14;;;;;;;22.33;6.05;;;12.50;99.90;;;;;;5094280;28;20040;-78
2023/06/08 04:40:53;;;;;;;13.82;5.70;;;12.50;99.90;;;;;;5092943;28;20547;-77
2023/06/08 04:43:20;;;;;;;21.15;4.97;;;12.50;99.90;;;;;;5092976;28;20048;-77
2023/06/08 04:45:57;;;;;;;15.93;4.93;;;12.60;99.90;;;;;;5109553;28;20396;-77
2023/06/08 04:48:26;;;;;;;17.90;5.95;;;12.60;99.90;;;;;;5092972;28;20048;-77
2023/06/08 04:50:52;;;;;;;16.65;5.85;;;12.60;99.90;;;;;;5092391;28;20456;-78
2023/06/08 04:53:25;;;;;;;12.68;5.13;;;12.60;99.90;;;;;;5092802;28;20044;-78
2023/06/08 04:55:57;;;;;;;17.63;6.20;;;12.80;99.90;;;;;;5092511;28;20498;-77
2023/06/08 04:58:23;;;;;;;13.32;4.90;;;12.80;99.90;;;;;;5092709;28;20407;-77
2023/06/08 05:00:49;;;;;;;13.93;5.47;;;12.80;99.90;;;;;;5092626;28;20471;-76
2023/06/08 05:03:17;;;;;;;18.63;5.03;;;12.70;99.90;;;;;;5092650;28;20075;-77
2023/06/08 05:05:43;;;;;;;11.40;4.70;;;12.70;99.90;;;;;;5092332;28;20040;-77
2023/06/08 05:08:09;;;;;;;19.17;5.65;;;12.80;99.90;;;;;;5092975;28;20051;-77
2023/06/08 05:10:34;;;;;;;15.68;5.45;;;12.80;99.90;;;;;;5092493;28;20048;-77
2023/06/08 05:13:01;;;;;;;15.52;5.55;;;12.90;99.90;;;;;;5092169;28;20396;-77
2023/06/08 05:15:28;;;;;;;14.27;5.10;;;13.00;99.90;;;;;;5093368;28;20040;-77
2023/06/08 05:17:55;;;;;;;16.65;4.90;;;13.30;99.90;;;;;;5092079;28;20096;-77
2023/06/08 05:20:23;;;;;;;17.52;5.63;;;13.40;99.90;;;;;;5092097;28;20053;-77
2023/06/08 05:22:49;;;;;;;19.13;4.85;;;13.20;99.90;;;;;;5092371;28;20047;-77
2023/06/08 05:25:15;;;;;;;15.65;5.68;;;13.10;99.90;;;;;;5092352;28;20040;-77
2023/06/08 05:27:41;;;;;;;21.25;6.28;;;13.30;99.90;;;;;;5092306;28;20427;-77
2023/06/08 05:30:07;;;;;;;15.23;5.80;;;13.40;99.90;;;;;;5092236;28;20051;-77
2023/06/08 05:32:32;;;;;;;26.35;5.72;;;13.50;99.90;;;;;;5092136;28;20059;-78
2023/06/08 05:35:01;;;;;;;15.43;6.03;;;13.60;99.90;;;;;;5092030;28;20044;-77
2023/06/08 05:37:27;;;;;;;22.02;5.85;;;13.70;99.90;;;;;;5091956;28;20044;-77
2023/06/08 05:39:53;;;;;;;15.70;5.13;;;13.70;99.90;;;;;;5092271;28;20059;-78
2023/06/08 05:42:19;;;;;;;14.27;4.72;;;13.60;99.90;;;;;;5092864;28;20503;-77
2023/06/08 05:44:45;;;;;;;17.52;5.65;;;13.50;99.90;;;;;;5112370;28;20047;-77
2023/06/08 05:47:11;;;;;;;22.13;5.85;;;13.80;99.90;;;;;;5112238;28;20407;-77
2023/06/08 05:49:36;;;;;;;17.20;5.43;;;13.70;99.90;;;;;;5112131;28;20514;-77
2023/06/08 05:52:03;;;;;;;13.48;4.72;;;13.60;99.90;;;;;;5112097;28;20547;-77
2023/06/08 05:54:29;;;;;;;13.38;6.13;;;13.70;99.90;;;;;;5112169;28;20044;-78
2023/06/08 05:56:55;;;;;;;19.52;5.53;;;13.50;99.90;;;;;;5112419;28;20506;-78
2023/06/08 05:59:21;;;;;;;11.00;4.65;;;13.50;99.90;;;;;;5112363;28;20044;-78
2023/06/08 06:01:47;;;;;;;13.77;4.68;;;13.40;99.90;;;;;;5113601;28;20093;-76
2023/06/08 06:04:13;;;;;;;16.27;4.82;;;13.60;99.90;;;;;;5112382;28;20044;-76
2023/06/08 06:06:39;;;;;;;13.43;5.03;;;13.60;99.90;;;;;;5112157;28;20441;-77
2023/06/08 06:09:04;;;;;;;16.05;4.75;;;13.80;99.90;;;;;;5112048;28;20053;-77
2023/06/08 06:11:30;;;;;;;12.57;4.80;;;14.10;99.90;;;;;;5113412;28;20090;-77
2023/06/08 06:13:58;;;;;;;15.52;4.38;;;14.10;99.90;;;;;;5113479;28;20043;-78
2023/06/08 06:16:24;;;;;;;15.25;4.65;;;14.00;99.90;;;;;;5112262;28;20497;-77
2023/06/08 06:18:50;;;;;;;16.50;4.88;;;14.00;99.90;;;;;;5113508;28;20051;-76
2023/06/08 06:21:16;;;;;;;11.32;4.60;;;14.20;99.90;;;;;;5117315;28;20115;-76
2023/06/08 06:23:44;;;;;;;14.68;5.25;;;14.30;99.90;;;;;;5114752;28;20035;-74
2023/06/08 06:26:11;;;;;;;15.57;4.78;;;14.50;99.90;;;;;;5117047;28;20039;-75
2023/06/08 06:28:38;;;;;;;15.52;5.00;;;14.80;99.90;;;;;;5117003;28;20043;-75
2023/06/08 06:31:03;;;;;;;17.40;4.57;;;14.80;99.90;;;;;;5115210;28;20403;-75
2023/06/08 06:33:30;;;;;;;10.95;4.00;;;14.60;99.90;;;;;;5115297;28;20482;-75
2023/06/08 06:35:55;;;;;;;13.40;4.28;;;14.60;99.90;;;;;;5116519;28;20390;-76
2023/06/08 06:38:21;;;;;;;12.65;4.55;;;14.70;99.90;;;;;;5115170;28;20042;-75
2023/06/08 06:40:52;;;;;;;15.15;4.97;;;14.40;99.90;;;;;;5116652;28;20538;-75
2023/06/08 06:43:21;;;;;;;13.70;4.57;;;14.30;99.90;;;;;;5116729;28;20048;-75
2023/06/08 06:45:50;;;;;;;21.63;5.32;;;14.40;99.90;;;;;;5116132;28;20125;-75
2023/06/08 06:48:21;;;;;;;16.33;5.28;;;14.50;99.90;;;;;;5115370;28;20059;-75
2023/06/08 06:50:47;;;;;;;20.15;4.82;;;14.40;99.90;;;;;;5114989;28;20071;-75
2023/06/08 06:53:13;;;;;;;9.32;3.70;;;14.50;99.90;;;;;;5116178;28;20489;-75
2023/06/08 06:55:40;;;;;;;15.95;5.28;;;14.50;99.90;;;;;;5116171;27;20040;-75
2023/06/08 06:58:06;;;;;;;12.18;4.70;;;14.50;99.90;;;;;;5114799;28;20094;-75
2023/06/08 07:00:37;;;;;;;17.25;4.70;;;14.80;99.90;;;;;;5114904;28;20075;-76
2023/06/08 07:03:07;;;;;;;13.93;4.88;;;15.10;99.90;;;;;;5114933;28;20055;-75
2023/06/08 07:05:38;;;;;;;14.55;4.45;;;14.90;99.90;;;;;;5114755;28;20487;-74
2023/06/08 07:08:07;;;;;;;13.25;4.28;;;15.10;99.90;;;;;;5114966;28;20240;-76
2023/06/08 07:10:32;;;;;;;11.77;4.38;;;15.30;99.90;;;;;;5114362;28;20056;-75
2023/06/08 07:13:01;;;;;;;16.58;5.15;;;14.90;99.90;;;;;;5114528;28;20113;-75
2023/06/08 07:15:27;;;;;;;9.73;4.05;;;15.10;99.90;;;;;;5114090;28;20054;-75
2023/06/08 07:17:52;;;;;;;18.92;5.18;;;15.10;99.90;;;;;;5115861;28;20039;-75
2023/06/08 07:20:18;;;;;;;18.02;4.85;;;15.50;99.90;;;;;;5115781;28;20036;-75
2023/06/08 07:22:44;;;;;;;13.95;4.35;;;15.70;99.90;;;;;;5115910;28;20051;-75
2023/06/08 07:25:09;;;;;;;11.25;4.47;;;15.80;99.90;;;;;;5114439;28;20040;-75
2023/06/08 07:27:35;;;;;;;12.30;4.53;;;15.80;99.90;;;;;;5114515;28;20500;-75
2023/06/08 07:30:01;;;;;;;14.30;4.68;;;15.70;99.90;;;;;;5114856;28;20089;-75
2023/06/08 07:32:28;;;;;;;12.13;4.22;;;15.90;99.90;;;;;;5115432;28;20444;-75
2023/06/08 07:34:55;;;;;;;19.33;4.63;;;15.80;99.90;;;;;;5114188;28;20407;-75
2023/06/08 07:37:20;;;;;;;9.95;3.92;;;15.90;99.90;;;;;;5115354;28;20051;-75
2023/06/08 07:39:46;;;;;;;13.52;4.07;;;16.20;99.90;;;;;;5114142;28;20096;-74
2023/06/08 07:42:12;;;;;;;12.77;4.72;;;16.30;99.90;;;;;;5113980;28;20431;-75
2023/06/08 07:44:37;;;;;;;14.57;4.38;;;16.10;99.90;;;;;;5113994;28;20139;-75
2023/06/08 07:47:04;;;;;;;14.43;3.90;;;16.50;99.90;;;;;;5115012;28;20043;-77
2023/06/08 07:49:30;;;;;;;16.10;4.80;;;16.30;99.90;;;;;;5115099;28;20058;-77
2023/06/08 07:51:56;;;;;;;8.98;4.22;;;16.10;99.90;;;;;;5113995;28;20043;-77
2023/06/08 07:54:22;;;;;;;12.65;4.13;;;16.10;99.90;;;;;;5113960;28;20088;-77
2023/06/08 07:56:54;;;;;;;12.55;4.07;;;16.10;99.90;;;;;;5114181;28;20513;-76
2023/06/08 07:59:19;;;;;;;14.85;4.65;;;15.90;99.90;;;;;;5115426;28;20035;-77
2023/06/08 08:01:45;;;;;;;12.32;4.35;;;16.00;99.90;;;;;;5114042;28;20039;-77
2023/06/08 08:04:11;;;;;;;10.45;3.90;;;16.00;99.90;;;;;;5113821;28;20382;-76
2023/06/08 08:06:37;;;;;;;11.70;4.47;;;16.10;99.90;;;;;;5115027;28;20048;-77
2023/06/08 08:09:03;;;;;;;17.33;5.07;;;16.30;99.90;;;;;;5115179;28;20118;-76
2023/06/08 08:11:29;;;;;;;14.13;3.92;;;16.20;99.90;;;;;;5113682;28;20122;-76
2023/06/08 08:13:57;;;;;;;12.55;3.55;;;16.10;99.90;;;;;;5113764;28;20108;-77
2023/06/08 08:16:23;;;;;;;11.75;4.10;;;16.20;99.90;;;;;;5115043;28;20099;-76
2023/06/08 08:18:49;;;;;;;14.13;4.35;;;16.40;99.90;;;;;;5113793;28;20102;-76
2023/06/08 08:21:18;;;;;;;10.13;4.10;;;16.50;99.90;;;;;;5112995;28;20540;-76
2023/06/08 08:23:43;;;;;;;15.27;4.13;;;16.60;99.90;;;;;;5113388;28;20501;-76
2023/06/08 08:26:10;;;;;;;12.82;3.88;;;16.70;99.90;;;;;;5113325;28;20047;-76
2023/06/08 08:28:41;;;;;;;12.38;4.07;;;16.50;99.90;;;;;;5113400;28;20047;-76
2023/06/08 08:31:06;;;;;;;13.88;4.50;;;16.80;99.90;;;;;;5113384;28;20050;-76
2023/06/08 08:33:32;;;;;;;14.05;3.65;;;16.70;99.90;;;;;;5113596;28;20043;-76
2023/06/08 08:35:57;;;;;;;16.73;4.70;;;16.60;99.90;;;;;;5113457;28;20053;-77
2023/06/08 08:38:23;;;;;;;11.70;4.55;;;16.80;99.90;;;;;;5114525;28;20394;-77
2023/06/08 08:40:51;;;;;;;11.20;4.22;;;17.00;99.90;;;;;;5114579;28;20044;-76
2023/06/08 08:43:23;;;;;;;13.90;4.82;;;16.60;99.90;;;;;;5113223;28;20043;-76
2023/06/08 08:45:50;;;;;;;10.88;3.55;;;16.90;99.90;;;;;;5114110;28;20055;-77
2023/06/08 08:48:19;;;;;;;18.10;4.57;;;17.00;99.90;;;;;;5113090;28;20543;-76
2023/06/08 08:50:53;;;;;;;11.35;3.70;;;17.00;99.90;;;;;;5112965;28;20545;-77
2023/06/08 08:53:27;;;;;;;21.65;4.20;;;17.20;99.90;;;;;;5113202;28;20046;-76
2023/06/08 08:55:57;;;;;;;12.00;4.13;;;17.50;99.90;;;;;;5112877;28;20126;-77
2023/06/08 08:58:23;;;;;;;16.98;4.18;;;17.50;99.90;;;;;;5114322;28;20050;-76
2023/06/08 09:00:49;;;;;;;9.73;4.25;;;17.60;99.90;;;;;;5113103;28;20052;-76
2023/06/08 09:03:15;;;;;;;11.27;3.72;;;17.50;99.90;;;;;;5112899;28;20055;-77
2023/06/08 09:05:43;;;;;;;10.18;3.67;;;17.60;99.90;;;;;;5112955;28;20070;-76
2023/06/08 09:08:10;;;;;;;11.30;4.80;;;17.90;99.90;;;;;;5114242;28;20043;-76
2023/06/08 09:10:36;;;;;;;13.02;4.20;;;17.70;99.90;;;;;;5112831;28;20051;-77
2023/06/08 09:13:02;;;;;;;17.80;4.18;;;18.00;99.90;;;;;;5112964;28;20051;-76
2023/06/08 09:15:28;;;;;;;12.35;4.00;;;18.10;99.90;;;;;;5113878;28;20096;-76
2023/06/08 09:18:16;;;;;;;15.05;3.80;;;17.90;99.90;;;;;;5114078;28;20470;-76
2023/06/08 09:20:43;;;;;;;10.68;3.30;;;17.80;99.90;;;;;;5112848;28;20072;-76
2023/06/08 09:23:24;;;;;;;13.07;3.17;;;18.30;99.90;;;;;;5112800;28;20051;-82
2023/06/08 09:25:51;;;;;;;11.25;3.92;;;17.70;99.90;;;;;;5112521;28;20465;-76
2023/06/08 09:28:28;;;;;;;15.52;4.18;;;17.80;99.90;;;;;;5112714;28;20054;-76
2023/06/08 09:31:00;;;;;;;10.70;3.67;;;18.20;99.90;;;;;;5112650;28;20529;-75
2023/06/08 09:33:27;;;;;;;12.30;3.78;;;18.40;99.90;;;;;;5112909;28;20051;-76
2023/06/08 09:35:56;;;;;;;9.50;3.83;;;18.40;99.90;;;;;;5112516;28;20113;-76
2023/06/08 09:38:26;;;;;;;11.38;3.95;;;18.30;99.90;;;;;;5112457;28;20036;-76
2023/06/08 09:41:20;;;;;;;16.60;3.92;;;18.30;99.90;;;;;;5112881;28;20047;-76
2023/06/08 09:43:54;;;;;;;9.27;3.78;;;18.50;99.90;;;;;;5112686;28;20123;-76
2023/06/08 09:46:39;;;;;;;12.75;3.53;;;18.50;99.90;;;;;;5112183;28;20059;-76
2023/06/08 09:49:08;;;;;;;14.90;3.70;;;18.70;99.90;;;;;;5112347;28;20053;-76
2023/06/08 09:51:37;;;;;;;10.38;3.70;;;19.00;99.90;;;;;;5112415;28;20050;-75
2023/06/08 09:54:05;;;;;;;14.43;3.63;;;18.80;99.90;;;;;;5115552;28;20139;-76
2023/06/08 09:56:31;;;;;;;9.48;3.33;;;18.80;99.90;;;;;;5116396;28;20079;-76
2023/06/08 09:59:06;;;;;;;10.57;3.42;;;18.80;99.90;;;;;;5117667;28;20052;-76
2023/06/08 10:01:46;;;;;;;19.85;4.72;;;18.60;99.90;;;;;;5116532;28;20093;-76
2023/06/08 10:04:31;;;;;;;9.32;3.53;;;19.00;99.90;;;;;;5116559;28;20043;-76
2023/06/08 10:07:10;;;;;;;11.60;3.42;;;19.10;99.90;;;;;;5116111;28;20054;-76
2023/06/08 10:09:41;;;;;;;15.90;3.55;;;18.80;99.90;;;;;;5116260;28;20455;-76
2023/06/08 10:12:07;;;;;;;9.38;3.40;;;18.70;99.90;;;;;;5116025;28;20061;-76
2023/06/08 10:14:33;;;;;;;14.25;3.28;;;18.80;99.90;;;;;;5116799;28;20065;-76
2023/06/08 10:16:59;;;;;;;10.93;3.15;;;18.60;99.90;;;;;;5116051;28;20054;-76
2023/06/08 10:19:26;;;;;;;12.20;3.50;;;18.40;99.90;;;;;;5115922;28;20048;-75
2023/06/08 10:21:53;;;;;;;11.88;2.97;;;18.60;99.90;;;;;;5116060;28;20060;-76
2023/06/08 10:24:20;;;;;;;11.75;3.30;;;18.90;99.90;;;;;;5116037;28;20119;-76
2023/06/08 10:26:48;;;;;;;10.02;3.03;;;18.90;99.90;;;;;;5115838;28;20088;-76
2023/06/08 10:29:14;;;;;;;15.05;4.28;;;18.60;99.90;;;;;;5115930;28;20444;-75
2023/06/08 10:31:41;;;;;;;12.90;4.05;;;18.40;99.90;;;;;;5117086;28;20126;-75
2023/06/08 10:34:11;;;;;;;9.75;3.20;;;18.50;99.90;;;;;;5115906;28;20058;-76
2023/06/08 10:36:39;;;;;;;9.25;3.50;;;18.50;99.90;;;;;;5116895;28;20044;-75
2023/06/08 10:39:16;;;;;;;10.38;3.58;;;18.10;99.90;;;;;;5116769;28;20050;-76
2023/06/08 10:41:42;;;;;;;6.20;2.60;;;18.50;99.90;;;;;;5116668;28;20440;-75
2023/06/08 10:44:36;;;;;;;9.82;3.40;;;18.60;99.90;;;;;;5116740;28;20479;-76
2023/06/08 10:47:11;;;;;;;7.68;3.25;;;18.80;99.90;;;;;;5116557;28;20051;-76
2023/06/08 10:49:38;;;;;;;7.38;2.80;;;18.60;99.90;;;;;;5116869;28;20047;-76
2023/06/08 10:52:10;;;;;;;13.80;3.22;;;18.80;99.90;;;;;;5115237;28;20047;-76
2023/06/08 10:54:57;;;;;;;11.18;2.78;;;18.70;99.90;;;;;;5115269;28;20055;-76
2023/06/08 10:57:46;;;;;;;10.65;3.33;;;18.30;99.90;;;;;;5115180;28;20052;-76
2023/06/08 11:00:25;;;;;;;9.68;3.05;;;18.90;99.90;;;;;;5115203;28;20040;-76
2023/06/08 11:02:55;;;;;;;10.25;3.20;;;18.50;99.90;;;;;;5115113;28;20122;-76
2023/06/08 11:05:22;;;;;;;12.27;2.95;;;18.60;99.90;;;;;;5113934;28;20114;-76
2023/06/08 11:07:47;;;;;;;13.23;2.92;;;18.10;99.90;;;;;;5115122;28;20398;-76
2023/06/08 11:10:14;;;;;;;8.18;2.35;;;18.30;99.90;;;;;;5115002;28;20044;-76
2023/06/08 11:12:40;;;;;;;10.25;3.25;;;18.70;99.90;;;;;;5116276;28;20104;-76
2023/06/08 11:15:06;;;;;;;12.88;3.25;;;18.90;99.90;;;;;;5114660;28;20039;-76
2023/06/08 11:17:45;;;;;;;17.25;3.42;;;19.00;99.90;;;;;;5115036;28;20047;-76
2023/06/08 11:20:13;;;;;;;9.27;2.88;;;18.30;99.90;;;;;;5116236;28;20113;-76
2023/06/08 11:22:39;;;;;;;7.68;2.50;;;18.50;99.90;;;;;;5114606;28;20082;-76
2023/06/08 11:25:07;;;;;;;13.40;3.00;;;18.50;99.90;;;;;;5114624;28;20448;-76
2023/06/08 11:27:33;;;;;;;11.32;3.20;;;18.60;99.90;;;;;;5114633;28;20162;-76
2023/06/08 11:30:07;;;;;;;14.25;3.13;;;18.50;99.90;;;;;;5114830;28;20126;-75
2023/06/08 11:32:35;;;;;;;16.95;3.03;;;18.80;99.90;;;;;;5114379;28;20051;-75
2023/06/08 11:35:04;;;;;;;12.38;3.38;;;18.30;99.90;;;;;;5115934;27;20040;-76
2023/06/08 11:37:33;;;;;;;13.25;2.88;;;18.00;99.90;;;;;;5114616;28;20050;-75
2023/06/08 11:39:59;;;;;;;11.05;2.92;;;18.50;99.90;;;;;;5115744;28;20050;-75
2023/06/08 11:42:25;;;;;;;9.27;3.00;;;18.30;99.90;;;;;;5115827;28;20035;-75
2023/06/08 11:44:54;;;;;;;8.48;2.55;;;18.60;99.90;;;;;;5114379;28;20339;-75
2023/06/08 11:47:20;;;;;;;9.18;3.17;;;18.50;99.90;;;;;;5114342;28;20571;-75
2023/06/08 11:49:58;;;;;;;10.55;3.22;;;17.80;99.90;;;;;;5114084;28;20414;-76
2023/06/08 11:52:25;;;;;;;13.55;2.60;;;17.50;99.90;;;;;;5114170;28;20118;-75
2023/06/08 11:54:52;;;;;;;13.50;3.17;;;17.40;99.90;;;;;;5114269;28;20391;-75
2023/06/08 11:57:18;;;;;;;16.17;3.30;;;17.90;99.90;;;;;;5114319;28;20142;-75
2023/06/08 11:59:45;;;;;;;12.07;3.35;;;18.40;99.90;;;;;;5113981;28;20043;-75
2023/06/08 12:02:14;;;;;;;13.35;3.08;;;18.40;99.90;;;;;;5113826;28;20047;-75
2023/06/08 12:04:42;;;;;;;8.23;2.90;;;18.40;99.90;;;;;;5115177;28;20517;-76
2023/06/08 12:07:12;;;;;;;18.75;3.08;;;18.30;99.90;;;;;;5114075;28;20432;-75
2023/06/08 12:09:46;;;;;;;11.73;3.00;;;18.60;99.90;;;;;;5114037;28;20083;-76
2023/06/08 12:12:12;;;;;;;11.18;3.15;;;18.60;99.90;;;;;;5113760;28;20054;-75
2023/06/08 12:14:45;;;;;;;12.48;3.45;;;18.40;99.90;;;;;;5113944;28;20390;-75
2023/06/08 12:17:15;;;;;;;11.00;3.03;;;18.20;99.90;;;;;;5113293;28;20051;-75
2023/06/08 12:19:45;;;;;;;12.20;2.97;;;18.40;99.90;;;;;;5113606;28;20483;-75
2023/06/08 12:22:12;;;;;;;11.93;3.40;;;18.50;99.90;;;;;;5113776;28;20043;-75
2023/06/08 12:24:38;;;;;;;11.35;3.10;;;18.60;99.90;;;;;;5113420;28;20039;-75
2023/06/08 12:27:06;;;;;;;7.88;2.53;;;18.40;99.90;;;;;;5113428;28;20089;-75
2023/06/08 12:29:36;;;;;;;13.15;3.08;;;18.60;99.90;;;;;;5113067;28;20043;-75
2023/06/08 12:32:05;;;;;;;9.68;2.80;;;18.50;99.90;;;;;;5113318;28;20047;-75
2023/06/08 12:34:32;;;;;;;9.50;2.90;;;18.80;99.90;;;;;;5113353;28;20040;-75
2023/06/08 12:36:57;;;;;;;9.70;3.00;;;18.80;99.90;;;;;;5113303;28;20103;-75
2023/06/08 12:39:26;;;;;;;10.40;3.35;;;18.60;99.90;;;;;;5113159;28;20039;-75
2023/06/08 12:41:51;;;;;;;11.38;3.00;;;18.80;99.90;;;;;;5114398;28;20043;-75
2023/06/08 12:44:17;;;;;;;13.25;3.33;;;18.00;99.90;;;;;;5114427;28;20077;-75